createdAt,value
2019-01-09T00:01:43.102Z,5.40
2019-01-09T00:04:12.518Z,5.40
2019-01-09T00:06:41.941Z,5.50
2019-01-09T00:09:11.448Z,5.70
2019-01-09T00:11:40.925Z,5.60
2019-01-09T00:14:10.814Z,5.50
2019-01-09T00:16:40.217Z,5.40
2019-01-09T00:19:09.810Z,5.30
2019-01-09T00:21:39.241Z,5.20
2019-01-09T00:24:08.662Z,5.20
2019-01-09T00:26:38.094Z,5.20
2019-01-09T00:29:07.666Z,5.20
2019-01-09T00:31:37.082Z,5.30
2019-01-09T00:34:06.517Z,5.40
2019-01-09T00:36:35.961Z,5.40
2019-01-09T00:39:06.266Z,5.30
2019-01-09T00:41:35.718Z,5.30
2019-01-09T00:44:05.161Z,5.30
2019-01-09T00:46:34.579Z,5.20
2019-01-09T00:49:04.006Z,5.20
2019-01-09T00:51:33.413Z,5.20
2019-01-09T00:54:02.851Z,5.30
2019-01-09T00:56:32.272Z,5.40
2019-01-09T00:59:01.677Z,5.40
2019-01-09T01:01:31.085Z,5.30
2019-01-09T01:04:29.257Z,5.40
2019-01-09T01:07:26.313Z,5.40
2019-01-09T01:10:33.345Z,5.50
2019-01-09T01:13:32.958Z,5.40
2019-01-09T01:16:46.962Z,5.20
2019-01-09T01:19:45.045Z,5.10
2019-01-09T01:23:04.730Z,5.10
2019-01-09T01:26:12.015Z,5.20
2019-01-09T01:29:15.963Z,5.20
2019-01-09T01:32:04.915Z,5.30
2019-01-09T01:35:11.062Z,5.30
2019-01-09T01:37:56.357Z,5.30
2019-01-09T01:41:00.828Z,5.10
2019-01-09T01:43:58.306Z,5.10
2019-01-09T01:47:04.536Z,5.10
2019-01-09T01:49:55.631Z,5.10
2019-01-09T01:52:53.978Z,5.00
2019-01-09T01:55:55.777Z,5.00
2019-01-09T01:59:14.073Z,4.90
2019-01-09T02:02:20.081Z,4.90
2019-01-09T02:05:05.564Z,4.90
2019-01-09T02:08:09.825Z,4.90
2019-01-09T02:11:22.762Z,4.80
2019-01-09T02:14:33.106Z,4.90
2019-01-09T02:17:33.605Z,5.00
2019-01-09T02:20:35.064Z,5.10
2019-01-09T02:24:06.950Z,5.20
2019-01-09T02:27:00.778Z,5.20
2019-01-09T02:30:01.702Z,5.30
2019-01-09T02:32:32.306Z,5.30
2019-01-09T02:35:01.861Z,5.40
2019-01-09T02:37:31.615Z,5.50
2019-01-09T02:40:01.111Z,5.60
2019-01-09T02:42:30.518Z,5.50
2019-01-09T02:44:59.952Z,5.60
2019-01-09T02:47:29.386Z,5.60
2019-01-09T02:49:58.825Z,5.70
2019-01-09T02:52:28.296Z,5.70
2019-01-09T02:54:57.749Z,5.70
2019-01-09T02:57:27.597Z,5.60
2019-01-09T02:59:57.069Z,5.70
2019-01-09T03:02:26.474Z,5.70
2019-01-09T03:04:55.894Z,5.70
2019-01-09T03:07:25.325Z,5.70
2019-01-09T03:09:54.895Z,5.70
2019-01-09T03:12:24.421Z,5.70
2019-01-09T03:14:54.258Z,5.70
2019-01-09T03:17:23.666Z,5.70
2019-01-09T03:19:54.077Z,5.70
2019-01-09T03:22:23.494Z,5.70
2019-01-09T03:24:53.907Z,5.80
2019-01-09T03:27:23.324Z,5.90
2019-01-09T03:29:52.762Z,5.90
2019-01-09T03:32:22.171Z,5.90
2019-01-09T03:34:51.879Z,5.90
2019-01-09T03:37:21.340Z,5.80
2019-01-09T03:39:51.083Z,5.70
2019-01-09T03:42:20.486Z,5.70
2019-01-09T03:44:49.902Z,5.70
2019-01-09T03:47:19.327Z,5.80
2019-01-09T03:49:48.769Z,5.80
2019-01-09T03:52:18.198Z,5.80
2019-01-09T03:54:47.619Z,5.80
2019-01-09T03:57:17.047Z,5.70
2019-01-09T03:59:46.830Z,5.60
2019-01-09T04:02:16.273Z,5.40
2019-01-09T04:04:45.690Z,5.30
2019-01-09T04:07:15.160Z,5.30
2019-01-09T04:09:44.582Z,5.30
2019-01-09T04:12:14.006Z,5.30
2019-01-09T04:14:43.430Z,5.40
2019-01-09T04:17:12.871Z,5.30
2019-01-09T04:19:42.284Z,5.30
2019-01-09T04:22:11.750Z,5.30
2019-01-09T04:24:41.167Z,5.30
2019-01-09T04:27:10.598Z,5.30
2019-01-09T04:29:41.795Z,5.30
2019-01-09T04:32:11.408Z,5.30
2019-01-09T04:34:40.823Z,5.30
2019-01-09T04:37:10.517Z,5.40
2019-01-09T04:39:39.980Z,5.40
2019-01-09T04:42:09.596Z,5.50
2019-01-09T04:44:39.036Z,5.50
2019-01-09T04:47:08.458Z,5.60
2019-01-09T04:49:37.874Z,5.60
2019-01-09T04:52:07.314Z,5.60
2019-01-09T04:54:36.750Z,5.70
2019-01-09T04:57:06.158Z,5.80
2019-01-09T04:59:35.803Z,5.90
2019-01-09T05:02:05.291Z,5.90
2019-01-09T05:04:34.886Z,5.70
2019-01-09T05:07:04.318Z,5.10
2019-01-09T05:09:33.738Z,4.80
2019-01-09T05:12:03.163Z,4.70
2019-01-09T05:14:32.579Z,4.60
2019-01-09T05:17:02.053Z,4.60
2019-01-09T05:19:31.471Z,4.60
2019-01-09T05:22:00.885Z,4.60
2019-01-09T05:24:30.310Z,4.70
2019-01-09T05:26:59.738Z,4.80
2019-01-09T05:29:29.173Z,5.10
2019-01-09T05:31:58.594Z,4.90
2019-01-09T05:34:28.007Z,4.60
2019-01-09T05:36:57.901Z,4.50
2019-01-09T05:39:27.745Z,4.40
2019-01-09T05:41:57.178Z,4.30
2019-01-09T05:44:26.614Z,4.40
2019-01-09T05:46:56.078Z,4.40
2019-01-09T05:49:25.730Z,4.60
2019-01-09T05:51:55.150Z,4.60
2019-01-09T05:54:24.610Z,4.70
2019-01-09T05:56:54.323Z,4.70
2019-01-09T05:59:23.911Z,4.70
2019-01-09T06:01:53.342Z,4.70
2019-01-09T06:04:22.995Z,4.70
2019-01-09T06:06:52.421Z,4.80
2019-01-09T06:09:21.866Z,4.70
2019-01-09T06:11:51.291Z,4.60
2019-01-09T06:14:20.734Z,4.50
2019-01-09T06:16:50.178Z,4.40
2019-01-09T06:19:19.598Z,4.50
2019-01-09T06:21:49.020Z,4.40
2019-01-09T06:24:18.438Z,4.50
2019-01-09T06:26:47.870Z,4.50
2019-01-09T06:29:17.297Z,4.50
2019-01-09T06:31:46.734Z,4.50
2019-01-09T06:34:16.168Z,4.50
2019-01-09T06:36:45.733Z,4.50
2019-01-09T06:39:15.182Z,4.50
2019-01-09T06:41:44.810Z,4.70
2019-01-09T06:44:14.259Z,4.70
2019-01-09T06:46:43.686Z,4.70
2019-01-09T06:49:13.262Z,4.70
2019-01-09T06:51:42.686Z,4.60
2019-01-09T06:54:12.126Z,4.60
2019-01-09T06:56:41.562Z,4.60
2019-01-09T06:59:11.016Z,4.50
2019-01-09T07:01:40.426Z,4.50
2019-01-09T07:04:10.814Z,4.50
2019-01-09T07:06:40.286Z,4.60
2019-01-09T07:09:09.701Z,4.60
2019-01-09T07:11:39.133Z,4.60
2019-01-09T07:14:08.550Z,4.60
2019-01-09T07:16:39.056Z,4.60
2019-01-09T07:19:08.526Z,4.70
2019-01-09T07:21:45.399Z,4.80
2019-01-09T07:24:09.136Z,4.80
2019-01-09T07:26:38.586Z,4.90
2019-01-09T07:29:08.034Z,4.90
2019-01-09T07:31:37.464Z,4.90
2019-01-09T07:34:06.903Z,5.10
2019-01-09T07:36:36.442Z,5.20
2019-01-09T07:39:07.274Z,5.30
2019-01-09T07:41:36.762Z,5.30
2019-01-09T07:44:06.181Z,5.20
2019-01-09T07:46:35.776Z,5.10
2019-01-09T07:49:05.234Z,5.10
2019-01-09T07:51:35.069Z,5.00
2019-01-09T07:54:04.704Z,5.00
2019-01-09T07:56:34.136Z,5.00
2019-01-09T07:59:03.553Z,5.00
2019-01-09T08:01:32.982Z,5.00
2019-01-09T08:04:02.466Z,5.00
2019-01-09T08:06:32.162Z,4.90
2019-01-09T08:09:01.610Z,5.00
2019-01-09T08:11:32.329Z,5.00
2019-01-09T08:14:01.751Z,5.10
2019-01-09T08:16:31.225Z,5.20
2019-01-09T08:19:00.663Z,5.30
2019-01-09T08:21:30.116Z,5.30
2019-01-09T08:23:59.551Z,5.30
2019-01-09T08:26:30.463Z,5.20
2019-01-09T08:29:01.045Z,5.20
2019-01-09T08:31:30.541Z,5.30
2019-01-09T08:34:00.005Z,5.30
2019-01-09T08:36:29.826Z,5.20
2019-01-09T08:38:59.566Z,5.30
2019-01-09T08:41:29.118Z,5.30
2019-01-09T08:43:58.541Z,5.40
2019-01-09T08:46:27.957Z,5.40
2019-01-09T08:48:57.386Z,5.40
2019-01-09T08:51:26.896Z,5.40
2019-01-09T08:53:56.311Z,5.50
2019-01-09T08:56:25.775Z,5.60
2019-01-09T08:58:55.198Z,5.60
2019-01-09T09:01:24.649Z,5.70
2019-01-09T09:03:54.062Z,5.70
2019-01-09T09:06:23.669Z,5.80
2019-01-09T09:08:53.358Z,5.80
2019-01-09T09:11:22.819Z,5.80
2019-01-09T09:13:52.279Z,5.80
2019-01-09T09:16:21.714Z,5.70
2019-01-09T09:18:51.130Z,5.70
2019-01-09T09:21:20.558Z,5.70
2019-01-09T09:23:49.978Z,5.70
2019-01-09T09:26:19.531Z,5.70
2019-01-09T09:28:49.045Z,5.70
2019-01-09T09:31:18.483Z,5.70
2019-01-09T09:33:47.918Z,5.80
2019-01-09T09:36:18.129Z,5.80
2019-01-09T09:38:47.582Z,5.90
2019-01-09T09:41:17.051Z,5.90
2019-01-09T09:43:46.495Z,6.00
2019-01-09T09:46:15.915Z,6.00
2019-01-09T09:48:45.329Z,6.00
2019-01-09T09:51:14.757Z,5.90
2019-01-09T09:53:44.223Z,5.90
2019-01-09T09:56:13.637Z,5.90
2019-01-09T09:58:43.080Z,5.90
2019-01-09T10:01:12.501Z,5.90
2019-01-09T10:03:41.925Z,5.90
2019-01-09T10:06:11.506Z,5.90
2019-01-09T10:08:41.405Z,6.00
2019-01-09T10:11:10.871Z,6.00
2019-01-09T10:13:40.318Z,6.00
2019-01-09T10:16:09.750Z,6.10
2019-01-09T10:18:39.174Z,6.10
2019-01-09T10:21:08.620Z,6.20
2019-01-09T10:23:38.035Z,6.20
2019-01-09T10:26:08.548Z,6.30
2019-01-09T10:28:38.050Z,6.30
2019-01-09T10:31:07.470Z,6.30
2019-01-09T10:33:36.905Z,6.30
2019-01-09T10:36:06.345Z,6.20
2019-01-09T10:38:38.127Z,6.20
2019-01-09T10:41:06.990Z,6.10
2019-01-09T10:43:36.454Z,6.20
2019-01-09T10:46:05.878Z,6.20
2019-01-09T10:48:35.300Z,6.20
2019-01-09T10:51:04.722Z,6.20
2019-01-09T10:53:34.177Z,6.20
2019-01-09T10:56:03.634Z,6.20
2019-01-09T10:58:33.066Z,6.30
2019-01-09T11:01:02.494Z,6.30
2019-01-09T11:03:31.924Z,6.40
2019-01-09T11:06:02.316Z,6.50
2019-01-09T11:08:31.943Z,6.60
2019-01-09T11:11:01.381Z,6.60
2019-01-09T11:13:30.938Z,6.70
2019-01-09T11:16:00.393Z,6.70
2019-01-09T11:18:29.842Z,6.70
2019-01-09T11:20:59.303Z,6.70
2019-01-09T11:23:28.717Z,6.70
2019-01-09T11:25:58.179Z,6.70
2019-01-09T11:28:27.599Z,6.70
2019-01-09T11:30:57.028Z,6.70
2019-01-09T11:33:26.490Z,6.70
2019-01-09T11:35:55.946Z,6.80
2019-01-09T11:38:25.482Z,6.80
2019-01-09T11:40:55.234Z,6.90
2019-01-09T11:43:24.714Z,6.90
2019-01-09T11:45:54.149Z,6.90
2019-01-09T11:48:23.570Z,6.80
2019-01-09T11:50:52.987Z,6.90
2019-01-09T11:53:22.438Z,6.90
2019-01-09T11:55:51.943Z,6.90
2019-01-09T11:58:21.366Z,6.90
2019-01-09T12:00:50.805Z,6.90
2019-01-09T12:03:20.244Z,6.90
2019-01-09T12:05:49.682Z,7.00
2019-01-09T12:08:19.112Z,7.00
2019-01-09T12:10:48.620Z,7.00
2019-01-09T12:13:18.589Z,7.10
2019-01-09T12:15:48.078Z,7.20
2019-01-09T12:18:18.002Z,7.20
2019-01-09T12:20:47.497Z,7.20
2019-01-09T12:23:16.927Z,7.20
2019-01-09T12:25:46.415Z,7.20
2019-01-09T12:28:15.879Z,7.30
2019-01-09T12:30:45.310Z,7.30
2019-01-09T12:33:14.743Z,7.30
2019-01-09T12:35:44.170Z,7.20
2019-01-09T12:38:13.768Z,7.20
2019-01-09T12:40:43.513Z,7.10
2019-01-09T12:43:12.945Z,7.10
2019-01-09T12:45:42.390Z,7.20
2019-01-09T12:48:11.816Z,7.10
2019-01-09T12:50:41.262Z,7.20
2019-01-09T12:53:10.718Z,7.20
2019-01-09T12:55:40.229Z,7.20
2019-01-09T12:58:10.634Z,7.10
2019-01-09T13:00:40.058Z,7.20
2019-01-09T13:03:09.539Z,7.20
2019-01-09T13:05:39.006Z,7.30
2019-01-09T13:08:08.469Z,7.20
2019-01-09T13:10:38.391Z,7.10
2019-01-09T13:13:07.845Z,7.10
2019-01-09T13:15:37.286Z,7.10
2019-01-09T13:18:06.712Z,7.10
2019-01-09T13:20:36.141Z,7.00
2019-01-09T13:23:05.579Z,7.00
2019-01-09T13:25:36.478Z,7.00
2019-01-09T13:28:06.216Z,7.10
2019-01-09T13:30:35.681Z,7.00
2019-01-09T13:33:05.234Z,7.10
2019-01-09T13:35:34.717Z,7.10
2019-01-09T13:38:04.148Z,7.10
2019-01-09T13:40:34.433Z,7.10
2019-01-09T13:43:03.962Z,7.20
2019-01-09T13:45:33.422Z,7.20
2019-01-09T13:48:02.871Z,7.20
2019-01-09T13:50:32.351Z,7.20
2019-01-09T13:53:01.770Z,7.10
2019-01-09T13:55:31.241Z,7.10
2019-01-09T13:58:00.698Z,7.10
2019-01-09T14:00:30.412Z,7.00
2019-01-09T14:03:00.135Z,7.00
2019-01-09T14:05:29.554Z,7.00
2019-01-09T14:07:59.017Z,7.00
2019-01-09T14:10:28.517Z,7.00
2019-01-09T14:12:58.037Z,7.00
2019-01-09T14:15:27.562Z,7.00
2019-01-09T14:17:56.986Z,7.00
2019-01-09T14:20:26.413Z,7.00
2019-01-09T14:22:55.845Z,6.90
2019-01-09T14:25:25.515Z,6.90
2019-01-09T14:27:54.993Z,6.90
2019-01-09T14:30:26.589Z,6.90
2019-01-09T14:32:56.025Z,6.90
2019-01-09T14:35:25.486Z,6.90
2019-01-09T14:37:55.173Z,6.80
2019-01-09T14:40:24.642Z,6.80
2019-01-09T14:42:54.061Z,6.70
2019-01-09T14:45:23.514Z,6.80
2019-01-09T14:47:52.929Z,6.80
2019-01-09T14:50:23.702Z,6.80
2019-01-09T14:52:53.506Z,6.80
2019-01-09T14:55:22.938Z,6.80
2019-01-09T14:57:52.433Z,6.70
2019-01-09T15:00:24.069Z,6.80
2019-01-09T15:02:54.666Z,6.70
2019-01-09T15:05:24.082Z,6.70
2019-01-09T15:07:53.546Z,6.70
2019-01-09T15:10:28.038Z,6.70
2019-01-09T15:12:57.819Z,6.60
2019-01-09T15:15:35.081Z,6.60
2019-01-09T15:18:04.505Z,6.50
2019-01-09T15:20:34.118Z,6.60
2019-01-09T15:23:03.639Z,6.50
2019-01-09T15:25:33.145Z,6.50
2019-01-09T15:28:02.618Z,6.50
2019-01-09T15:30:32.043Z,6.50
2019-01-09T15:33:01.484Z,6.40
2019-01-09T15:35:30.991Z,6.40
2019-01-09T15:38:00.459Z,6.40
2019-01-09T15:40:31.083Z,6.40
2019-01-09T15:43:00.567Z,6.30
2019-01-09T15:45:29.982Z,6.30
2019-01-09T15:47:59.675Z,6.30
2019-01-09T15:50:30.404Z,6.30
2019-01-09T15:52:59.880Z,6.30
2019-01-09T15:55:29.283Z,6.30
2019-01-09T15:57:58.800Z,6.20
2019-01-09T16:00:36.874Z,6.20
2019-01-09T16:03:06.486Z,6.20
2019-01-09T16:05:35.925Z,6.20
2019-01-09T16:08:06.322Z,6.20
2019-01-09T16:10:35.813Z,6.20
2019-01-09T16:13:05.304Z,6.20
2019-01-09T16:15:34.993Z,6.20
2019-01-09T16:18:04.807Z,6.20
2019-01-09T16:20:34.432Z,6.10
2019-01-09T16:23:03.858Z,6.10
2019-01-09T16:25:33.685Z,6.10
2019-01-09T16:28:03.198Z,6.10
2019-01-09T16:30:39.555Z,6.00
2019-01-09T16:33:08.970Z,6.00
2019-01-09T16:35:38.571Z,6.00
2019-01-09T16:38:08.068Z,6.00
2019-01-09T16:40:37.548Z,5.90
2019-01-09T16:43:07.049Z,5.90
2019-01-09T16:45:36.700Z,5.90
2019-01-09T16:48:06.192Z,5.90
2019-01-09T16:50:36.705Z,5.90
2019-01-09T16:53:06.165Z,5.80
2019-01-09T16:55:35.612Z,5.80
2019-01-09T16:58:05.436Z,5.70
2019-01-09T17:00:34.902Z,5.70
2019-01-09T17:03:04.371Z,5.70
2019-01-09T17:05:33.797Z,5.70
2019-01-09T17:08:03.262Z,5.80
2019-01-09T17:10:33.006Z,5.70
2019-01-09T17:13:02.483Z,5.80
2019-01-09T17:15:31.967Z,5.80
2019-01-09T17:18:02.031Z,5.70
2019-01-09T17:20:31.573Z,5.80
2019-01-09T17:23:01.065Z,5.80
2019-01-09T17:25:31.640Z,5.80
2019-01-09T17:28:01.050Z,5.80
2019-01-09T17:30:30.573Z,5.80
2019-01-09T17:33:00.038Z,5.70
2019-01-09T17:35:29.721Z,5.70
2019-01-09T17:37:59.201Z,5.70
2019-01-09T17:40:30.135Z,5.70
2019-01-09T17:42:59.959Z,5.70
2019-01-09T17:45:29.651Z,5.70
2019-01-09T17:47:59.214Z,5.70
2019-01-09T17:50:31.934Z,5.70
2019-01-09T17:53:01.635Z,5.70
2019-01-09T17:55:31.057Z,5.60
2019-01-09T17:58:00.481Z,5.60
2019-01-09T18:00:35.226Z,5.60
2019-01-09T18:03:05.879Z,5.60
2019-01-09T18:05:35.487Z,5.60
2019-01-09T18:08:10.947Z,5.60
2019-01-09T18:10:37.490Z,5.60
2019-01-09T18:13:07.557Z,5.60
2019-01-09T18:15:37.012Z,5.60
2019-01-09T18:18:06.539Z,5.60
2019-01-09T18:20:36.140Z,5.50
2019-01-09T18:23:05.571Z,5.50
2019-01-09T18:25:35.222Z,5.50
2019-01-09T18:28:04.855Z,5.50
2019-01-09T18:30:40.762Z,5.50
2019-01-09T18:33:17.446Z,5.50
2019-01-09T18:36:07.730Z,5.50
2019-01-09T18:39:01.300Z,5.40
2019-01-09T18:41:51.568Z,5.40
2019-01-09T18:44:58.757Z,5.50
2019-01-09T18:47:57.598Z,5.50
2019-01-09T18:50:57.750Z,5.50
2019-01-09T18:53:37.362Z,5.50
2019-01-09T18:56:08.634Z,5.40
2019-01-09T18:58:38.203Z,5.40
2019-01-09T19:01:08.278Z,5.40
2019-01-09T19:03:37.904Z,5.40
2019-01-09T19:06:07.414Z,5.40
2019-01-09T19:08:37.114Z,5.40
2019-01-09T19:11:07.863Z,5.30
2019-01-09T19:13:37.617Z,5.30
2019-01-09T19:16:07.514Z,5.30
2019-01-09T19:18:37.325Z,5.30
2019-01-09T19:21:06.759Z,5.30
2019-01-09T19:23:36.358Z,5.30
2019-01-09T19:26:06.051Z,5.30
2019-01-09T19:28:35.514Z,5.30
2019-01-09T19:31:05.233Z,5.40
2019-01-09T19:33:34.690Z,5.40
2019-01-09T19:36:04.154Z,5.40
2019-01-09T19:38:33.954Z,5.40
2019-01-09T19:41:03.594Z,5.40
2019-01-09T19:43:33.249Z,5.40
2019-01-09T19:46:02.678Z,5.40
2019-01-09T19:48:32.447Z,5.40
2019-01-09T19:51:01.891Z,5.40
2019-01-09T19:53:31.384Z,5.30
2019-01-09T19:56:01.193Z,5.30
2019-01-09T19:58:30.818Z,5.30
2019-01-09T20:01:00.315Z,5.30
2019-01-09T20:03:30.041Z,5.30
2019-01-09T20:05:59.499Z,5.30
2019-01-09T20:08:29.170Z,5.30
2019-01-09T20:10:58.685Z,5.20
2019-01-09T20:13:28.210Z,5.30
2019-01-09T20:15:57.791Z,5.20
2019-01-09T20:18:27.355Z,5.20
2019-01-09T20:20:56.905Z,5.20
2019-01-09T20:23:26.397Z,5.20
2019-01-09T20:25:56.038Z,5.20
2019-01-09T20:28:25.785Z,5.10
2019-01-09T20:30:55.257Z,5.10
2019-01-09T20:33:24.738Z,5.10
2019-01-09T20:35:54.263Z,5.10
2019-01-09T20:38:23.964Z,5.10
2019-01-09T20:40:54.224Z,5.00
2019-01-09T20:43:23.792Z,5.10
2019-01-09T20:45:53.349Z,5.00
2019-01-09T20:48:22.969Z,5.00
2019-01-09T20:50:52.629Z,5.00
2019-01-09T20:53:22.147Z,5.00
2019-01-09T20:55:51.806Z,5.00
2019-01-09T20:58:21.273Z,5.00
2019-01-09T21:00:50.843Z,4.90
2019-01-09T21:03:20.301Z,5.00
2019-01-09T21:05:51.653Z,4.90
2019-01-09T21:08:21.121Z,5.00
2019-01-09T21:10:50.828Z,4.90
2019-01-09T21:13:20.303Z,4.90
2019-01-09T21:15:49.788Z,4.90
2019-01-09T21:18:19.224Z,4.90
2019-01-09T21:20:48.641Z,4.80
2019-01-09T21:23:18.277Z,4.80
2019-01-09T21:25:47.736Z,4.80
2019-01-09T21:28:17.338Z,4.80
2019-01-09T21:30:46.808Z,4.80
2019-01-09T21:33:16.235Z,4.80
2019-01-09T21:35:45.677Z,4.70
2019-01-09T21:38:15.138Z,4.80
2019-01-09T21:40:44.542Z,4.80
2019-01-09T21:43:13.970Z,4.80
2019-01-09T21:45:43.463Z,4.80
2019-01-09T21:48:12.887Z,4.80
2019-01-09T21:50:42.322Z,4.70
2019-01-09T21:53:11.771Z,4.70
2019-01-09T21:55:41.196Z,4.70
2019-01-09T21:58:10.642Z,4.80
2019-01-09T22:00:40.222Z,4.80
2019-01-09T22:03:09.775Z,4.80
2019-01-09T22:05:39.206Z,4.70
2019-01-09T22:08:08.638Z,4.70
2019-01-09T22:10:38.343Z,4.70
2019-01-09T22:13:08.390Z,4.70
2019-01-09T22:15:38.022Z,4.70
2019-01-09T22:18:07.578Z,4.70
2019-01-09T22:20:37.006Z,4.80
2019-01-09T22:23:06.495Z,4.80
2019-01-09T22:25:35.949Z,4.70
2019-01-09T22:28:05.385Z,4.70
2019-01-09T22:30:34.906Z,4.70
2019-01-09T22:33:04.329Z,4.70
2019-01-09T22:35:41.377Z,4.70
2019-01-09T22:38:05.139Z,4.60
2019-01-09T22:40:34.599Z,4.60
2019-01-09T22:43:04.042Z,4.60
2019-01-09T22:45:33.481Z,4.60
2019-01-09T22:48:02.897Z,4.60
2019-01-09T22:50:32.356Z,4.50
2019-01-09T22:53:01.876Z,4.60
2019-01-09T22:55:31.306Z,4.60
2019-01-09T22:58:00.755Z,4.50
2019-01-09T23:00:37.458Z,4.50
2019-01-09T23:03:07.978Z,4.50
2019-01-09T23:05:37.405Z,4.40
2019-01-09T23:08:07.035Z,4.50
2019-01-09T23:10:36.514Z,4.50
2019-01-09T23:13:06.189Z,4.50
2019-01-09T23:15:35.653Z,4.40
2019-01-09T23:18:05.480Z,4.40
2019-01-09T23:20:34.965Z,4.40
2019-01-09T23:23:04.397Z,4.30
2019-01-09T23:25:35.562Z,4.30
2019-01-09T23:28:05.326Z,4.30
2019-01-09T23:30:34.863Z,4.30
2019-01-09T23:33:05.670Z,4.40
2019-01-09T23:35:35.087Z,4.40
2019-01-09T23:38:04.678Z,4.40
2019-01-09T23:40:34.106Z,4.40
2019-01-09T23:43:04.213Z,4.40
2019-01-09T23:45:33.972Z,4.40
2019-01-09T23:48:03.446Z,4.30
2019-01-09T23:50:35.180Z,4.30
2019-01-09T23:53:04.703Z,4.30
2019-01-09T23:55:34.158Z,4.30
2019-01-09T23:58:03.829Z,4.20
